sensor_id;sensor_type;location;lat;lon;timestamp;pressure;altitude;pressure_sealevel;temperature;humidity
72086;BME280;64750;52.134;5.424;2024-03-06T00:01:05;102011.25;;;7.36;100.00
72086;BME280;64750;52.134;5.424;2024-03-06T00:03:33;102013.84;;;7.36;100.00
72086;BME280;64750;52.134;5.424;2024-03-06T00:05:59;102015.63;;;7.34;100.00
72086;BME280;64750;52.134;5.424;2024-03-06T00:08:26;102018.56;;;7.23;100.00
72086;BME280;64750;52.134;5.424;2024-03-06T00:10:52;102018.69;;;7.18;100.00
72086;BME280;64750;52.134;5.424;2024-03-06T00:13:19;102024.75;;;7.19;100.00
72086;BME280;64750;52.134;5.424;2024-03-06T00:15:46;102026.47;;;7.20;100.00
72086;BME280;64750;52.134;5.424;2024-03-06T00:18:13;102038.66;;;7.21;100.00
72086;BME280;64750;52.134;5.424;2024-03-06T00:20:40;102031.63;;;7.23;100.00
72086;BME280;64750;52.134;5.424;2024-03-06T00:23:08;102030.75;;;7.22;100.00
72086;BME280;64750;52.134;5.424;2024-03-06T00:25:35;102029.97;;;7.19;100.00
72086;BME280;64750;52.134;5.424;2024-03-06T00:28:02;102034.38;;;7.18;100.00
72086;BME280;64750;52.134;5.424;2024-03-06T00:30:29;102029.13;;;7.18;100.00
72086;BME280;64750;52.134;5.424;2024-03-06T00:32:55;102031.84;;;7.15;100.00
72086;BME280;64750;52.134;5.424;2024-03-06T00:35:22;102035.34;;;7.14;100.00
72086;BME280;64750;52.134;5.424;2024-03-06T00:37:48;102037.97;;;7.14;100.00
72086;BME280;64750;52.134;5.424;2024-03-06T00:40:15;102038.81;;;7.15;100.00
72086;BME280;64750;52.134;5.424;2024-03-06T00:42:41;102039.69;;;7.15;100.00
72086;BME280;64750;52.134;5.424;2024-03-06T00:45:08;102039.69;;;7.15;100.00
72086;BME280;64750;52.134;5.424;2024-03-06T00:47:35;102044.03;;;7.15;100.00
72086;BME280;64750;52.134;5.424;2024-03-06T00:50:01;102054.53;;;7.13;100.00
72086;BME280;64750;52.134;5.424;2024-03-06T00:52:28;102046.69;;;7.13;100.00
72086;BME280;64750;52.134;5.424;2024-03-06T00:54:55;102048.53;;;7.10;100.00
72086;BME280;64750;52.134;5.424;2024-03-06T00:57:23;102049.41;;;7.10;100.00
72086;BME280;64750;52.134;5.424;2024-03-06T00:59:50;102053.81;;;7.08;100.00
72086;BME280;64750;52.134;5.424;2024-03-06T01:02:17;102053.81;;;7.08;100.00
72086;BME280;64750;52.134;5.424;2024-03-06T01:04:43;102052.19;;;7.04;100.00
72086;BME280;64750;52.134;5.424;2024-03-06T01:07:10;102052.19;;;7.04;100.00
72086;BME280;64750;52.134;5.424;2024-03-06T01:09:36;102056.47;;;7.06;100.00
72086;BME280;64750;52.134;5.424;2024-03-06T01:12:03;102062.47;;;7.10;100.00
72086;BME280;64750;52.134;5.424;2024-03-06T01:14:29;102063.22;;;7.14;100.00
72086;BME280;64750;52.134;5.424;2024-03-06T01:16:57;102064.97;;;7.15;100.00
72086;BME280;64750;52.134;5.424;2024-03-06T01:19:23;102067.63;;;7.13;100.00
72086;BME280;64750;52.134;5.424;2024-03-06T01:21:50;102066.00;;;7.09;100.00
72086;BME280;64750;52.134;5.424;2024-03-06T01:24:16;102068.56;;;7.11;100.00
72086;BME280;64750;52.134;5.424;2024-03-06T01:26:43;102076.44;;;7.09;100.00
72086;BME280;64750;52.134;5.424;2024-03-06T01:29:09;102074.72;;;7.08;100.00
72086;BME280;64750;52.134;5.424;2024-03-06T01:31:36;102075.56;;;7.10;100.00
72086;BME280;64750;52.134;5.424;2024-03-06T01:34:02;102079.84;;;7.11;100.00
72086;BME280;64750;52.134;5.424;2024-03-06T01:36:28;102079.78;;;7.14;100.00
72086;BME280;64750;52.134;5.424;2024-03-06T01:38:55;102089.38;;;7.15;100.00
72086;BME280;64750;52.134;5.424;2024-03-06T01:41:22;102085.81;;;7.16;100.00
72086;BME280;64750;52.134;5.424;2024-03-06T01:43:48;102085.81;;;7.16;100.00
72086;BME280;64750;52.134;5.424;2024-03-06T01:46:15;102077.91;;;7.19;100.00
72086;BME280;64750;52.134;5.424;2024-03-06T01:48:41;102084.88;;;7.20;100.00
72086;BME280;64750;52.134;5.424;2024-03-06T01:51:09;102081.38;;;7.20;100.00
72086;BME280;64750;52.134;5.424;2024-03-06T01:53:36;102081.34;;;7.21;100.00
72086;BME280;64750;52.134;5.424;2024-03-06T01:56:04;102079.66;;;7.19;100.00
72086;BME280;64750;52.134;5.424;2024-03-06T01:58:31;102076.28;;;7.15;100.00
72086;BME280;64750;52.134;5.424;2024-03-06T02:01:00;102072.75;;;7.16;100.00
72086;BME280;64750;52.134;5.424;2024-03-06T02:03:27;102079.69;;;7.17;100.00
72086;BME280;64750;52.134;5.424;2024-03-06T02:05:55;102081.53;;;7.15;100.00
72086;BME280;64750;52.134;5.424;2024-03-06T02:08:21;102082.59;;;7.06;100.00
72086;BME280;64750;52.134;5.424;2024-03-06T02:10:48;102086.19;;;7.02;100.00
72086;BME280;64750;52.134;5.424;2024-03-06T02:13:14;102089.81;;;6.97;100.00
72086;BME280;64750;52.134;5.424;2024-03-06T02:15:41;102097.66;;;6.97;100.00
72086;BME280;64750;52.134;5.424;2024-03-06T02:18:08;102092.44;;;6.97;100.00
72086;BME280;64750;52.134;5.424;2024-03-06T02:20:39;102097.00;;;6.87;100.00
72086;BME280;64750;52.134;5.424;2024-03-06T02:23:08;102098.88;;;6.82;100.00
72086;BME280;64750;52.134;5.424;2024-03-06T02:25:35;102099.91;;;6.76;100.00
72086;BME280;64750;52.134;5.424;2024-03-06T02:28:01;102093.84;;;6.74;100.00
72086;BME280;64750;52.134;5.424;2024-03-06T02:30:28;102099.91;;;6.76;100.00
72086;BME280;64750;52.134;5.424;2024-03-06T02:32:56;102096.31;;;6.80;100.00
72086;BME280;64750;52.134;5.424;2024-03-06T02:35:23;102101.53;;;6.80;100.00
72086;BME280;64750;52.134;5.424;2024-03-06T02:37:50;102099.81;;;6.79;100.00
72086;BME280;64750;52.134;5.424;2024-03-06T02:40:16;102099.81;;;6.79;100.00
72086;BME280;64750;52.134;5.424;2024-03-06T02:42:43;102108.63;;;6.75;100.00
72086;BME280;64750;52.134;5.424;2024-03-06T02:45:09;102098.31;;;6.70;100.00
72086;BME280;64750;52.134;5.424;2024-03-06T02:47:36;102105.34;;;6.67;100.00
72086;BME280;64750;52.134;5.424;2024-03-06T02:50:02;102104.47;;;6.66;100.00
72086;BME280;64750;52.134;5.424;2024-03-06T02:52:29;102110.56;;;6.67;100.00
72086;BME280;64750;52.134;5.424;2024-03-06T02:54:56;102107.13;;;6.65;100.00
72086;BME280;64750;52.134;5.424;2024-03-06T02:57:22;102095.06;;;6.59;100.00
72086;BME280;64750;52.134;5.424;2024-03-06T02:59:49;102098.66;;;6.53;100.00
72086;BME280;64750;52.134;5.424;2024-03-06T03:02:16;102105.72;;;6.51;100.00
72086;BME280;64750;52.134;5.424;2024-03-06T03:04:42;102110.84;;;6.54;100.00
72086;BME280;64750;52.134;5.424;2024-03-06T03:07:10;102114.25;;;6.58;100.00
72086;BME280;64750;52.134;5.424;2024-03-06T03:09:36;102109.88;;;6.59;100.00
72086;BME280;64750;52.134;5.424;2024-03-06T03:12:05;102115.09;;;6.59;100.00
72086;BME280;64750;52.134;5.424;2024-03-06T03:14:32;102109.03;;;6.58;100.00
72086;BME280;64750;52.134;5.424;2024-03-06T03:17:00;102114.34;;;6.53;100.00
72086;BME280;64750;52.134;5.424;2024-03-06T03:19:26;102116.16;;;6.51;99.88
72086;BME280;64750;52.134;5.424;2024-03-06T03:21:53;102115.34;;;6.48;99.96
72086;BME280;64750;52.134;5.424;2024-03-06T03:24:19;102117.22;;;6.43;99.51
72086;BME280;64750;52.134;5.424;2024-03-06T03:26:47;102116.41;;;6.39;99.45
72086;BME280;64750;52.134;5.424;2024-03-06T03:29:13;102112.97;;;6.38;99.97
72086;BME280;64750;52.134;5.424;2024-03-06T03:31:40;102118.91;;;6.45;99.83
72086;BME280;64750;52.134;5.424;2024-03-06T03:34:07;102109.25;;;6.47;99.92
72086;BME280;64750;52.134;5.424;2024-03-06T03:36:35;102115.44;;;6.43;99.82
72086;BME280;64750;52.134;5.424;2024-03-06T03:39:01;102116.41;;;6.39;99.58
72086;BME280;64750;52.134;5.424;2024-03-06T03:41:29;102116.63;;;6.30;99.42
72086;BME280;64750;52.134;5.424;2024-03-06T03:43:56;102125.44;;;6.26;99.27
72086;BME280;64750;52.134;5.424;2024-03-06T03:46:22;102128.03;;;6.24;98.96
72086;BME280;64750;52.134;5.424;2024-03-06T03:48:49;102129.03;;;6.18;98.79
72086;BME280;64750;52.134;5.424;2024-03-06T03:51:15;102136.91;;;6.17;98.91
72086;BME280;64750;52.134;5.424;2024-03-06T03:53:42;102132.63;;;6.14;98.83
72086;BME280;64750;52.134;5.424;2024-03-06T03:56:09;102143.06;;;6.14;98.98
72086;BME280;64750;52.134;5.424;2024-03-06T03:58:35;102131.66;;;6.18;98.72
72086;BME280;64750;52.134;5.424;2024-03-06T04:01:03;102127.31;;;6.17;98.62
72086;BME280;64750;52.134;5.424;2024-03-06T04:03:30;102136.03;;;6.16;98.84
72086;BME280;64750;52.134;5.424;2024-03-06T04:05:56;102137.81;;;6.16;98.88
72086;BME280;64750;52.134;5.424;2024-03-06T04:08:22;102144.75;;;6.15;98.44
72086;BME280;64750;52.134;5.424;2024-03-06T04:10:49;102141.25;;;6.16;98.72
72086;BME280;64750;52.134;5.424;2024-03-06T04:13:16;102137.75;;;6.17;98.42
72086;BME280;64750;52.134;5.424;2024-03-06T04:15:43;102136.91;;;6.17;98.20
72086;BME280;64750;52.134;5.424;2024-03-06T04:18:09;102146.59;;;6.10;97.65
72086;BME280;64750;52.134;5.424;2024-03-06T04:20:36;102144.94;;;6.06;97.35
72086;BME280;64750;52.134;5.424;2024-03-06T04:23:02;102142.38;;;6.04;97.60
72086;BME280;64750;52.134;5.424;2024-03-06T04:25:29;102138.06;;;6.02;97.35
72086;BME280;64750;52.134;5.424;2024-03-06T04:27:56;102140.59;;;6.05;97.08
72086;BME280;64750;52.134;5.424;2024-03-06T04:30:22;102139.81;;;6.03;96.84
72086;BME280;64750;52.134;5.424;2024-03-06T04:32:49;102150.41;;;5.94;96.56
72086;BME280;64750;52.134;5.424;2024-03-06T04:35:16;102141.84;;;5.85;96.45
72086;BME280;64750;52.134;5.424;2024-03-06T04:37:42;102152.31;;;5.84;96.25
72086;BME280;64750;52.134;5.424;2024-03-06T04:40:11;102155.72;;;5.87;96.52
72086;BME280;64750;52.134;5.424;2024-03-06T04:42:37;102159.16;;;5.89;96.59
72086;BME280;64750;52.134;5.424;2024-03-06T04:45:10;102160.00;;;5.91;96.32
72086;BME280;64750;52.134;5.424;2024-03-06T04:47:37;102166.97;;;5.89;96.65
72086;BME280;64750;52.134;5.424;2024-03-06T04:50:11;102164.38;;;5.89;96.57
72086;BME280;64750;52.134;5.424;2024-03-06T04:52:38;102171.72;;;5.69;96.00
72086;BME280;64750;52.134;5.424;2024-03-06T04:55:06;102171.06;;;5.56;95.90
72086;BME280;64750;52.134;5.424;2024-03-06T04:57:34;102181.59;;;5.50;96.17
72086;BME280;64750;52.134;5.424;2024-03-06T05:00:00;102173.88;;;5.45;96.30
72086;BME280;64750;52.134;5.424;2024-03-06T05:02:32;102186.03;;;5.45;96.43
72086;BME280;64750;52.134;5.424;2024-03-06T05:05:20;102184.31;;;5.45;96.71
72086;BME280;64750;52.134;5.424;2024-03-06T05:08:05;102179.91;;;5.47;97.01
72086;BME280;64750;52.134;5.424;2024-03-06T05:10:50;102185.91;;;5.52;96.90
72086;BME280;64750;52.134;5.424;2024-03-06T05:13:34;102190.28;;;5.52;97.03
72086;BME280;64750;52.134;5.424;2024-03-06T05:16:18;102193.78;;;5.51;96.97
72086;BME280;64750;52.134;5.424;2024-03-06T05:19:02;102199.16;;;5.41;96.24
72086;BME280;64750;52.134;5.424;2024-03-06T05:21:46;102202.72;;;5.36;96.34
72086;BME280;64750;52.134;5.424;2024-03-06T05:24:30;102200.91;;;5.39;96.78
72086;BME280;64750;52.134;5.424;2024-03-06T05:27:14;102209.50;;;5.46;96.60
72086;BME280;64750;52.134;5.424;2024-03-06T05:30:00;102209.41;;;5.51;96.60
72086;BME280;64750;52.134;5.424;2024-03-06T05:32:44;102211.19;;;5.50;96.42
72086;BME280;64750;52.134;5.424;2024-03-06T05:35:30;102217.34;;;5.46;96.01
72086;BME280;64750;52.134;5.424;2024-03-06T05:38:14;102224.34;;;5.42;96.20
72086;BME280;64750;52.134;5.424;2024-03-06T05:40:58;102224.47;;;5.35;96.00
72086;BME280;64750;52.134;5.424;2024-03-06T05:43:42;102221.88;;;5.32;96.00
72086;BME280;64750;52.134;5.424;2024-03-06T05:46:26;102233.25;;;5.28;95.72
72086;BME280;64750;52.134;5.424;2024-03-06T05:49:10;102229.81;;;5.25;95.79
72086;BME280;64750;52.134;5.424;2024-03-06T05:51:54;102235.91;;;5.24;95.78
72086;BME280;64750;52.134;5.424;2024-03-06T05:54:38;102243.75;;;5.24;95.80
72086;BME280;64750;52.134;5.424;2024-03-06T05:57:23;102242.09;;;5.17;95.40
72086;BME280;64750;52.134;5.424;2024-03-06T06:00:07;102243.91;;;5.12;95.54
72086;BME280;64750;52.134;5.424;2024-03-06T06:02:38;102247.41;;;5.11;95.55
72086;BME280;64750;52.134;5.424;2024-03-06T06:05:05;102250.91;;;5.08;95.51
72086;BME280;64750;52.134;5.424;2024-03-06T06:07:49;102255.31;;;5.06;95.70
72086;BME280;64750;52.134;5.424;2024-03-06T06:10:16;102267.44;;;5.06;95.73
72086;BME280;64750;52.134;5.424;2024-03-06T06:12:46;102270.06;;;5.06;95.74
72086;BME280;64750;52.134;5.424;2024-03-06T06:15:13;102269.19;;;5.07;95.91
72086;BME280;64750;52.134;5.424;2024-03-06T06:17:39;102271.84;;;5.04;95.82
72086;BME280;64750;52.134;5.424;2024-03-06T06:20:09;102270.97;;;5.03;95.76
72086;BME280;64750;52.134;5.424;2024-03-06T06:22:41;102273.53;;;5.05;96.05
72086;BME280;64750;52.134;5.424;2024-03-06T06:25:08;102284.75;;;5.13;96.25
72086;BME280;64750;52.134;5.424;2024-03-06T06:27:36;102280.31;;;5.18;96.34
72086;BME280;64750;52.134;5.424;2024-03-06T06:30:03;102287.25;;;5.19;96.26
72086;BME280;64750;52.134;5.424;2024-03-06T06:32:32;102290.69;;;5.21;96.31
72086;BME280;64750;52.134;5.424;2024-03-06T06:34:59;102296.75;;;5.23;96.26
72086;BME280;64750;52.134;5.424;2024-03-06T06:37:26;102299.53;;;5.11;95.86
72086;BME280;64750;52.134;5.424;2024-03-06T06:39:52;102310.09;;;5.02;95.84
72086;BME280;64750;52.134;5.424;2024-03-06T06:42:19;102310.13;;;4.99;95.96
72086;BME280;64750;52.134;5.424;2024-03-06T06:44:45;102304.81;;;5.06;96.30
72086;BME280;64750;52.134;5.424;2024-03-06T06:47:12;102315.22;;;5.08;96.19
72086;BME280;64750;52.134;5.424;2024-03-06T06:49:39;102318.69;;;5.07;96.43
72086;BME280;64750;52.134;5.424;2024-03-06T06:52:05;102328.16;;;5.13;96.72
72086;BME280;64750;52.134;5.424;2024-03-06T06:54:32;102330.72;;;5.17;96.91
72086;BME280;64750;52.134;5.424;2024-03-06T06:56:58;102336.72;;;5.24;97.03
72086;BME280;64750;52.134;5.424;2024-03-06T06:59:25;102341.06;;;5.23;97.08
72086;BME280;64750;52.134;5.424;2024-03-06T07:01:51;102334.97;;;5.24;97.03
72086;BME280;64750;52.134;5.424;2024-03-06T07:04:18;102346.28;;;5.23;96.97
72086;BME280;64750;52.134;5.424;2024-03-06T07:06:46;102346.31;;;5.22;97.20
72086;BME280;64750;52.134;5.424;2024-03-06T07:09:13;102349.72;;;5.25;97.49
72086;BME280;64750;52.134;5.424;2024-03-06T07:11:42;102351.41;;;5.30;97.79
72086;BME280;64750;52.134;5.424;2024-03-06T07:14:13;102362.66;;;5.32;97.70
72086;BME280;64750;52.134;5.424;2024-03-06T07:16:44;102360.97;;;5.31;97.62
72086;BME280;64750;52.134;5.424;2024-03-06T07:19:11;102366.16;;;5.32;97.85
72086;BME280;64750;52.134;5.424;2024-03-06T07:21:39;102369.66;;;5.31;97.89
72086;BME280;64750;52.134;5.424;2024-03-06T07:24:05;102367.06;;;5.30;97.87
72086;BME280;64750;52.134;5.424;2024-03-06T07:26:33;102373.16;;;5.29;98.00
72086;BME280;64750;52.134;5.424;2024-03-06T07:29:00;102368.84;;;5.26;98.21
72086;BME280;64750;52.134;5.424;2024-03-06T07:31:27;102372.38;;;5.22;98.14
72086;BME280;64750;52.134;5.424;2024-03-06T07:33:53;102371.47;;;5.24;98.00
72086;BME280;64750;52.134;5.424;2024-03-06T07:36:20;102368.88;;;5.24;98.38
72086;BME280;64750;52.134;5.424;2024-03-06T07:38:47;102374.09;;;5.24;98.39
72086;BME280;64750;52.134;5.424;2024-03-06T07:41:13;102367.09;;;5.26;98.74
72086;BME280;64750;52.134;5.424;2024-03-06T07:43:40;102381.91;;;5.24;98.84
72086;BME280;64750;52.134;5.424;2024-03-06T07:46:06;102382.75;;;5.25;99.00
72086;BME280;64750;52.134;5.424;2024-03-06T07:48:37;102388.00;;;5.23;99.17
72086;BME280;64750;52.134;5.424;2024-03-06T07:51:03;102383.59;;;5.25;99.21
72086;BME280;64750;52.134;5.424;2024-03-06T07:53:30;102390.53;;;5.30;99.54
72086;BME280;64750;52.134;5.424;2024-03-06T07:55:57;102390.56;;;5.28;99.46
72086;BME280;64750;52.134;5.424;2024-03-06T07:58:24;102392.22;;;5.32;99.78
72086;BME280;64750;52.134;5.424;2024-03-06T08:00:50;102394.84;;;5.29;99.51
72086;BME280;64750;52.134;5.424;2024-03-06T08:03:19;102400.91;;;5.33;99.75
72086;BME280;64750;52.134;5.424;2024-03-06T08:05:46;102406.97;;;5.35;99.85
72086;BME280;64750;52.134;5.424;2024-03-06T08:08:13;102411.28;;;5.37;100.00
72086;BME280;64750;52.134;5.424;2024-03-06T08:10:39;102409.56;;;5.36;100.00
72086;BME280;64750;52.134;5.424;2024-03-06T08:13:06;102413.97;;;5.31;100.00
72086;BME280;64750;52.134;5.424;2024-03-06T08:15:32;102416.53;;;5.36;100.00
72086;BME280;64750;52.134;5.424;2024-03-06T08:17:59;102408.69;;;5.36;100.00
72086;BME280;64750;52.134;5.424;2024-03-06T08:20:25;102410.41;;;5.37;100.00
72086;BME280;64750;52.134;5.424;2024-03-06T08:22:55;102421.72;;;5.37;100.00
72086;BME280;64750;52.134;5.424;2024-03-06T08:25:22;102412.09;;;5.41;100.00
72086;BME280;64750;52.134;5.424;2024-03-06T08:27:49;102418.13;;;5.46;100.00
72086;BME280;64750;52.134;5.424;2024-03-06T08:30:15;102427.59;;;5.52;100.00
72086;BME280;64750;52.134;5.424;2024-03-06T08:32:42;102427.63;;;5.50;100.00
72086;BME280;64750;52.134;5.424;2024-03-06T08:35:12;102431.97;;;5.51;100.00
72086;BME280;64750;52.134;5.424;2024-03-06T08:37:44;102436.28;;;5.54;100.00
72086;BME280;64750;52.134;5.424;2024-03-06T08:40:11;102439.69;;;5.57;100.00
72086;BME280;64750;52.134;5.424;2024-03-06T08:42:41;102449.22;;;5.60;100.00
72086;BME280;64750;52.134;5.424;2024-03-06T08:45:08;102445.75;;;5.59;100.00
72086;BME280;64750;52.134;5.424;2024-03-06T08:47:35;102454.38;;;5.65;100.00
72086;BME280;64750;52.134;5.424;2024-03-06T08:50:03;102455.19;;;5.70;100.00
72086;BME280;64750;52.134;5.424;2024-03-06T08:52:30;102451.63;;;5.74;100.00
72086;BME280;64750;52.134;5.424;2024-03-06T08:55:01;102455.13;;;5.74;100.00
72086;BME280;64750;52.134;5.424;2024-03-06T08:57:30;102459.47;;;5.74;100.00
72086;BME280;64750;52.134;5.424;2024-03-06T08:59:58;102460.31;;;5.76;100.00
72086;BME280;64750;52.134;5.424;2024-03-06T09:02:25;102467.22;;;5.80;100.00
72086;BME280;64750;52.134;5.424;2024-03-06T09:04:52;102468.03;;;5.84;100.00
72086;BME280;64750;52.134;5.424;2024-03-06T09:07:20;102467.13;;;5.86;100.00
72086;BME280;64750;52.134;5.424;2024-03-06T09:09:50;102483.63;;;5.87;100.00
72086;BME280;64750;52.134;5.424;2024-03-06T09:12:18;102476.69;;;5.87;100.00
72086;BME280;64750;52.134;5.424;2024-03-06T09:14:45;102475.81;;;5.88;100.00
72086;BME280;64750;52.134;5.424;2024-03-06T09:17:12;102483.59;;;5.91;100.00
72086;BME280;64750;52.134;5.424;2024-03-06T09:19:42;102480.03;;;5.96;100.00
72086;BME280;64750;52.134;5.424;2024-03-06T09:22:28;102488.72;;;5.99;100.00
72086;BME280;64750;52.134;5.424;2024-03-06T09:24:54;102488.66;;;6.02;100.00
72086;BME280;64750;52.134;5.424;2024-03-06T09:27:22;102494.78;;;6.03;100.00
72086;BME280;64750;52.134;5.424;2024-03-06T09:29:49;102498.25;;;6.02;100.00
72086;BME280;64750;52.134;5.424;2024-03-06T09:32:15;102501.72;;;6.04;100.00
72086;BME280;64750;52.134;5.424;2024-03-06T09:34:45;102506.88;;;6.07;100.00
72086;BME280;64750;52.134;5.424;2024-03-06T09:37:12;102508.59;;;6.10;100.00
72086;BME280;64750;52.134;5.424;2024-03-06T09:39:39;102510.34;;;6.09;100.00
72086;BME280;64750;52.134;5.424;2024-03-06T09:42:07;102512.03;;;6.13;100.00
72086;BME280;64750;52.134;5.424;2024-03-06T09:44:34;102511.13;;;6.16;100.00
72086;BME280;64750;52.134;5.424;2024-03-06T09:47:02;102521.53;;;6.17;100.00
72086;BME280;64750;52.134;5.424;2024-03-06T09:49:32;102522.34;;;6.21;100.00
72086;BME280;64750;52.134;5.424;2024-03-06T09:52:01;102520.56;;;6.24;100.00
72086;BME280;64750;52.134;5.424;2024-03-06T09:54:29;102525.69;;;6.29;100.00
72086;BME280;64750;52.134;5.424;2024-03-06T09:56:56;102522.19;;;6.32;100.00
72086;BME280;64750;52.134;5.424;2024-03-06T09:59:24;102527.41;;;6.32;100.00
72086;BME280;64750;52.134;5.424;2024-03-06T10:01:54;102530.00;;;6.33;100.00
72086;BME280;64750;52.134;5.424;2024-03-06T10:04:26;102530.84;;;6.35;100.00
72086;BME280;64750;52.134;5.424;2024-03-06T10:06:57;102529.03;;;6.39;100.00
72086;BME280;64750;52.134;5.424;2024-03-06T10:09:25;102535.94;;;6.43;100.00
72086;BME280;64750;52.134;5.424;2024-03-06T10:11:52;102535.88;;;6.48;100.00
72086;BME280;64750;52.134;5.424;2024-03-06T10:14:30;102535.03;;;6.46;100.00
72086;BME280;64750;52.134;5.424;2024-03-06T10:17:00;102536.78;;;6.45;100.00
72086;BME280;64750;52.134;5.424;2024-03-06T10:19:28;102547.22;;;6.47;100.00
72086;BME280;64750;52.134;5.424;2024-03-06T10:21:55;102546.28;;;6.49;100.00
72086;BME280;64750;52.134;5.424;2024-03-06T10:24:27;102546.25;;;6.52;100.00
72086;BME280;64750;52.134;5.424;2024-03-06T10:26:56;102537.50;;;6.55;100.00
72086;BME280;64750;52.134;5.424;2024-03-06T10:29:26;102548.75;;;6.59;100.00
72086;BME280;64750;52.134;5.424;2024-03-06T10:31:58;102548.72;;;6.62;100.00
72086;BME280;64750;52.134;5.424;2024-03-06T10:34:27;102543.38;;;6.69;100.00
72086;BME280;64750;52.134;5.424;2024-03-06T10:36:55;102543.28;;;6.74;100.00
72086;BME280;64750;52.134;5.424;2024-03-06T10:39:22;102544.97;;;6.77;100.00
72086;BME280;64750;52.134;5.424;2024-03-06T10:41:56;102551.09;;;6.77;100.00
72086;BME280;64750;52.134;5.424;2024-03-06T10:44:27;102556.25;;;6.80;100.00
72086;BME280;64750;52.134;5.424;2024-03-06T10:47:05;102560.53;;;6.86;100.00
72086;BME280;64750;52.134;5.424;2024-03-06T10:49:32;102549.94;;;6.92;100.00
72086;BME280;64750;52.134;5.424;2024-03-06T10:52:04;102552.44;;;7.00;100.00
72086;BME280;64750;52.134;5.424;2024-03-06T10:54:34;102554.13;;;7.04;100.00
72086;BME280;64750;52.134;5.424;2024-03-06T10:57:01;102552.31;;;7.06;100.00
72086;BME280;64750;52.134;5.424;2024-03-06T10:59:29;102554.91;;;7.09;100.00
72086;BME280;64750;52.134;5.424;2024-03-06T11:01:59;102560.03;;;7.14;100.00
72086;BME280;64750;52.134;5.424;2024-03-06T11:04:30;102555.63;;;7.17;100.00
72086;BME280;64750;52.134;5.424;2024-03-06T11:07:02;102552.78;;;7.30;100.00
72086;BME280;64750;52.134;5.424;2024-03-06T11:09:33;102553.44;;;7.41;100.00
72086;BME280;64750;52.134;5.424;2024-03-06T11:12:05;102558.47;;;7.50;100.00
72086;BME280;64750;52.134;5.424;2024-03-06T11:14:38;102558.38;;;7.57;100.00
72086;BME280;64750;52.134;5.424;2024-03-06T11:17:08;102563.66;;;7.53;100.00
72086;BME280;64750;52.134;5.424;2024-03-06T11:28:20;102561.09;;;7.50;100.00
72086;BME280;64750;52.134;5.424;2024-03-06T11:30:51;102560.22;;;7.51;100.00
72086;BME280;64750;52.134;5.424;2024-03-06T11:33:21;102563.72;;;7.50;100.00
72086;BME280;64750;52.134;5.424;2024-03-06T11:36:17;102564.56;;;7.52;100.00
72086;BME280;64750;52.134;5.424;2024-03-06T11:41:14;102567.88;;;7.61;100.00
72086;BME280;64750;52.134;5.424;2024-03-06T11:43:44;102573.03;;;7.64;100.00
72086;BME280;64750;52.134;5.424;2024-03-06T11:46:11;102568.66;;;7.66;100.00
72086;BME280;64750;52.134;5.424;2024-03-06T11:48:38;102575.53;;;7.70;100.00
72086;BME280;64750;52.134;5.424;2024-03-06T11:51:05;102575.53;;;7.70;100.00
72086;BME280;64750;52.134;5.424;2024-03-06T11:53:33;102570.25;;;7.73;100.00
72086;BME280;64750;52.134;5.424;2024-03-06T11:56:00;102567.59;;;7.75;100.00
72086;BME280;64750;52.134;5.424;2024-03-06T11:58:27;102579.72;;;7.79;100.00
72086;BME280;64750;52.134;5.424;2024-03-06T12:00:54;102575.22;;;7.85;100.00
72086;BME280;64750;52.134;5.424;2024-03-06T12:03:20;102568.22;;;7.87;100.00
72086;BME280;64750;52.134;5.424;2024-03-06T12:05:50;102572.53;;;7.90;100.00
72086;BME280;64750;52.134;5.424;2024-03-06T12:08:16;102577.69;;;7.93;100.00
72086;BME280;64750;52.134;5.424;2024-03-06T12:10:43;102574.97;;;7.98;100.00
72086;BME280;64750;52.134;5.424;2024-03-06T12:13:11;102576.63;;;8.02;100.00
72086;BME280;64750;52.134;5.424;2024-03-06T12:15:42;102569.53;;;8.07;100.00
72086;BME280;64750;52.134;5.424;2024-03-06T12:18:09;102576.47;;;8.10;100.00
72086;BME280;64750;52.134;5.424;2024-03-06T12:20:41;102574.56;;;8.16;100.00
72086;BME280;64750;52.134;5.424;2024-03-06T12:23:07;102575.34;;;8.20;100.00
72086;BME280;64750;52.134;5.424;2024-03-06T12:25:34;102573.56;;;8.22;100.00
72086;BME280;64750;52.134;5.424;2024-03-06T12:28:07;102575.28;;;8.25;100.00
72086;BME280;64750;52.134;5.424;2024-03-06T12:30:42;102576.03;;;8.30;100.00
72086;BME280;64750;52.134;5.424;2024-03-06T12:33:10;102580.38;;;8.31;100.00
72086;BME280;64750;52.134;5.424;2024-03-06T12:35:40;102567.19;;;8.34;100.00
72086;BME280;64750;52.134;5.424;2024-03-06T12:38:17;102572.28;;;8.40;100.00
72086;BME280;64750;52.134;5.424;2024-03-06T12:40:43;102573.94;;;8.44;100.00
72086;BME280;64750;52.134;5.424;2024-03-06T12:43:10;102573.91;;;8.47;100.00
72086;BME280;64750;52.134;5.424;2024-03-06T12:45:36;102579.06;;;8.50;100.00
72086;BME280;64750;52.134;5.424;2024-03-06T12:48:04;102571.16;;;8.52;100.00
72086;BME280;64750;52.134;5.424;2024-03-06T12:50:32;102564.16;;;8.54;100.00
72086;BME280;64750;52.134;5.424;2024-03-06T12:52:59;102570.19;;;8.58;100.00
72086;BME280;64750;52.134;5.424;2024-03-06T12:55:25;102566.44;;;8.68;100.00
72086;BME280;64750;52.134;5.424;2024-03-06T12:57:52;102568.94;;;8.73;100.00
72086;BME280;64750;52.134;5.424;2024-03-06T13:00:19;102568.00;;;8.75;100.00
72086;BME280;64750;52.134;5.424;2024-03-06T13:02:46;102559.16;;;8.79;99.75
72086;BME280;64750;52.134;5.424;2024-03-06T13:05:13;102558.16;;;8.85;99.11
72086;BME280;64750;52.134;5.424;2024-03-06T13:07:39;102564.03;;;8.93;97.89
72086;BME280;64750;52.134;5.424;2024-03-06T13:10:09;102552.63;;;8.96;97.07
72086;BME280;64750;52.134;5.424;2024-03-06T13:12:37;102561.34;;;8.96;96.78